Terminal Aerodrome Forecast
Issued by NWS Cleveland, OH

Home | Current Version | Previous Version | Graphics & Text | Print | Product List | Glossary On
Versions: 1 2 3 4 5 6 7 8 9 10 11 12
998
FTUS41 KCLE 162323
TAFERI
TAF
KERI 162323Z 1700/1724 05004KT P6SM SKC
     FM170300 14004KT P6SM SKC
     FM171600 35006KT P6SM SCT040=

USA.gov is the U.S. government's official web portal to all federal, state and local government web resources and services.